Time;durP1;ratioP1;P1;durP2;ratioP2;P2;SDS_P1;SDS_P2;PMS_P1;PMS_P2;Temp;Humidity;BMP_temperature;BMP_pressure;BME280_temperature;BME280_humidity;BME280_pressure;Samples;Min_cycle;Max_cycle;Signal;HPM_P1;HPM_P2
2022/05/16 00:00:06;;;;;;;;;;;;;;;;;;4916175;29;19923;-81
2022/05/16 00:02:32;;;;;;;;;;;;;;;;;;4916063;29;19925;-82
2022/05/16 00:04:57;;;;;;;;;;;;;;;;;;4916207;29;19919;-85
2022/05/16 00:07:22;;;;;;;;;;;;;;;;;;4916100;29;19923;-80
2022/05/16 00:09:48;;;;;;;;;;;;;;;;;;4915980;29;19919;-80
2022/05/16 00:12:14;;;;;;;;;;;;;;;;;;4916201;29;20333;-80
2022/05/16 00:14:41;;;;;;;;;;;;;;;;;;4915859;29;19926;-81
2022/05/16 00:17:06;;;;;;;;;;;;;;;;;;4916216;29;20009;-81
2022/05/16 00:19:31;;;;;;;;;;;;;;;;;;4914421;29;19994;-81
2022/05/16 00:21:57;;;;;;;;;;;;;;;;;;4916000;29;19999;-83
2022/05/16 00:24:28;;;;;;;;;;;;;;;;;;4916106;29;19927;-86
2022/05/16 00:26:54;;;;;;;;;;;;;;;;;;4916114;29;20384;-80
2022/05/16 00:29:19;;;;;;;;;;;;;;;;;;4898948;29;20014;-81
2022/05/16 00:31:45;;;;;;;;;;;;;;;;;;4915720;29;19923;-80
2022/05/16 00:34:10;;;;;;;;;;;;;;;;;;4915653;29;19925;-80
2022/05/16 00:36:36;;;;;;;;;;;;;;;;;;4898882;29;19930;-81
2022/05/16 00:39:02;;;;;;;;;;;;;;;;;;4916595;29;19927;-84
2022/05/16 00:41:27;;;;;;;;;;;;;;;;;;4919316;29;19927;-84
2022/05/16 00:43:58;;;;;;;;;;;;;;;;;;4902180;29;20010;-80
2022/05/16 00:46:26;;;;;;;;;;;;;;;;;;4919390;29;20288;-81
2022/05/16 00:48:51;;;;;;;;;;;;;;;;;;4919305;29;19927;-86
2022/05/16 00:51:22;;;;;;;;;;;;;;;;;;4918934;29;20307;-81
2022/05/16 00:53:49;;;;;;;;;;;;;;;;;;4918670;29;19923;-80
2022/05/16 00:56:14;;;;;;;;;;;;;;;;;;4919097;29;20392;-81
2022/05/16 00:58:41;;;;;;;;;;;;;;;;;;4917639;29;19985;-80
2022/05/16 01:04:47;;;;;;;;;;;;;;;;;;4918844;29;19919;-80
2022/05/16 01:06:38;;;;;;;;;;;;;;;;;;4919075;29;19979;-83
2022/05/16 01:09:03;;;;;;;;;;;;;;;;;;4918990;29;19919;-81
2022/05/16 01:11:28;;;;;;;;;;;;;;;;;;4901820;29;19971;-83
2022/05/16 01:13:54;;;;;;;;;;;;;;;;;;4918549;29;19927;-81
2022/05/16 01:16:22;;;;;;;;;;;;;;;;;;4918857;29;20277;-82
2022/05/16 01:18:47;;;;;;;;;;;;;;;;;;4918608;29;19970;-80
2022/05/16 01:21:18;;;;;;;;;;;;;;;;;;4918581;29;20361;-83
2022/05/16 01:23:45;;;;;;;;;;;;;;;;;;4917099;29;19989;-81
2022/05/16 01:26:12;;;;;;;;;;;;;;;;;;4918674;29;19930;-80
2022/05/16 01:28:38;;;;;;;;;;;;;;;;;;4918459;29;19974;-81
2022/05/16 01:31:03;;;;;;;;;;;;;;;;;;4917356;29;19951;-80
2022/05/16 01:33:29;;;;;;;;;;;;;;;;;;4918067;29;19995;-80
2022/05/16 01:35:54;;;;;;;;;;;;;;;;;;4918407;29;19919;-82
2022/05/16 01:38:23;;;;;;;;;;;;;;;;;;4901485;29;19919;-81
2022/05/16 01:40:48;;;;;;;;;;;;;;;;;;4918094;29;19919;-81
2022/05/16 01:43:14;;;;;;;;;;;;;;;;;;4918443;29;19926;-80
2022/05/16 01:45:41;;;;;;;;;;;;;;;;;;4918097;29;20376;-81
2022/05/16 01:48:07;;;;;;;;;;;;;;;;;;4918213;29;20412;-80
2022/05/16 01:50:33;;;;;;;;;;;;;;;;;;4916972;29;19930;-81
2022/05/16 01:52:58;;;;;;;;;;;;;;;;;;4918130;29;19926;-80
2022/05/16 01:55:23;;;;;;;;;;;;;;;;;;4916548;29;19919;-80
2022/05/16 01:57:49;;;;;;;;;;;;;;;;;;4917870;29;19935;-80
2022/05/16 02:00:15;;;;;;;;;;;;;;;;;;4917809;29;20278;-84
2022/05/16 02:02:42;;;;;;;;;;;;;;;;;;4916727;29;19926;-81
2022/05/16 02:05:28;;;;;;;;;;;;;;;;;;4917973;29;19970;-83
2022/05/16 02:07:53;;;;;;;;;;;;;;;;;;4917332;29;20014;-81
2022/05/16 02:10:20;;;;;;;;;;;;;;;;;;4920555;29;20006;-81
2022/05/16 02:12:46;;;;;;;;;;;;;;;;;;4955930;29;20434;-80
2022/05/16 02:15:13;;;;;;;;;;;;;;;;;;4955585;28;20005;-80
2022/05/16 02:17:39;;;;;;;;;;;;;;;;;;4955754;29;20017;-82
2022/05/16 02:20:05;;;;;;;;;;;;;;;;;;4955564;29;20426;-81
2022/05/16 02:25:15;;;;;;;;;;;;;;;;;;4955951;29;19938;-85
2022/05/16 02:27:40;;;;;;;;;;;;;;;;;;4938184;29;20005;-81
2022/05/16 02:30:06;;;;;;;;;;;;;;;;;;4938390;29;20060;-81
2022/05/16 02:32:32;;;;;;;;;;;;;;;;;;4955551;29;19925;-81
2022/05/16 02:34:57;;;;;;;;;;;;;;;;;;4937988;29;19918;-82
2022/05/16 02:37:23;;;;;;;;;;;;;;;;;;4938183;29;19918;-81
2022/05/16 02:39:48;;;;;;;;;;;;;;;;;;4955101;29;19918;-80
2022/05/16 02:42:14;;;;;;;;;;;;;;;;;;4955449;29;19918;-80
2022/05/16 02:44:40;;;;;;;;;;;;;;;;;;4955296;29;20299;-81
2022/05/16 02:47:06;;;;;;;;;;;;;;;;;;4955281;29;19922;-81
2022/05/16 02:49:32;;;;;;;;;;;;;;;;;;4955157;29;19919;-81
2022/05/16 02:51:58;;;;;;;;;;;;;;;;;;4954908;29;19937;-82
2022/05/16 02:54:23;;;;;;;;;;;;;;;;;;4937125;29;19930;-80
2022/05/16 02:56:49;;;;;;;;;;;;;;;;;;4955081;29;19937;-80
2022/05/16 02:59:14;;;;;;;;;;;;;;;;;;4937514;29;20382;-80
2022/05/16 03:01:40;;;;;;;;;;;;;;;;;;4941222;29;19923;-80
2022/05/16 03:04:05;;;;;;;;;;;;;;;;;;4937260;29;20009;-81
2022/05/16 03:06:31;;;;;;;;;;;;;;;;;;4954969;29;19934;-83
2022/05/16 03:08:56;;;;;;;;;;;;;;;;;;4954848;29;20347;-81
2022/05/16 03:11:22;;;;;;;;;;;;;;;;;;4937648;29;19947;-81
2022/05/16 03:13:48;;;;;;;;;;;;;;;;;;4954743;29;20434;-80
2022/05/16 03:16:13;;;;;;;;;;;;;;;;;;4953365;28;19919;-80
2022/05/16 03:18:39;;;;;;;;;;;;;;;;;;4937438;29;19925;-82
2022/05/16 03:21:04;;;;;;;;;;;;;;;;;;4939402;29;19919;-88
2022/05/16 03:23:30;;;;;;;;;;;;;;;;;;4939545;29;19922;-82
2022/05/16 03:25:55;;;;;;;;;;;;;;;;;;4944441;29;19918;-82
2022/05/16 03:28:20;;;;;;;;;;;;;;;;;;4945816;29;19927;-81
2022/05/16 03:30:46;;;;;;;;;;;;;;;;;;4939528;29;19954;-85
2022/05/16 03:33:12;;;;;;;;;;;;;;;;;;4943063;29;19923;-88
2022/05/16 03:35:37;;;;;;;;;;;;;;;;;;4943489;28;19923;-83
2022/05/16 03:38:03;;;;;;;;;;;;;;;;;;4943458;29;19926;-84
2022/05/16 03:40:45;;;;;;;;;;;;;;;;;;4945046;29;19942;-83
2022/05/16 03:43:12;;;;;;;;;;;;;;;;;;4944831;29;19925;-82
2022/05/16 03:45:37;;;;;;;;;;;;;;;;;;4954315;29;19969;-80
2022/05/16 03:48:04;;;;;;;;;;;;;;;;;;4937387;29;19973;-81
2022/05/16 03:50:29;;;;;;;;;;;;;;;;;;4934442;29;19923;-82
2022/05/16 03:52:58;;;;;;;;;;;;;;;;;;4935468;29;19930;-81
2022/05/16 03:55:23;;;;;;;;;;;;;;;;;;4935119;29;20418;-82
2022/05/16 03:57:49;;;;;;;;;;;;;;;;;;4935241;29;20055;-81
2022/05/16 04:00:15;;;;;;;;;;;;;;;;;;4928633;29;19959;-86
2022/05/16 04:02:41;;;;;;;;;;;;;;;;;;4919612;29;19927;-83
2022/05/16 04:05:08;;;;;;;;;;;;;;;;;;4917441;29;19950;-81
2022/05/16 04:07:33;;;;;;;;;;;;;;;;;;4923040;29;19923;-81
2022/05/16 04:09:59;;;;;;;;;;;;;;;;;;4915160;29;20376;-82
2022/05/16 04:12:25;;;;;;;;;;;;;;;;;;4921878;29;19922;-88
2022/05/16 04:14:50;;;;;;;;;;;;;;;;;;4923946;29;20033;-82
2022/05/16 04:17:15;;;;;;;;;;;;;;;;;;4916768;29;19930;-84
2022/05/16 04:19:41;;;;;;;;;;;;;;;;;;4944021;29;20009;-81
2022/05/16 04:22:08;;;;;;;;;;;;;;;;;;4943932;29;19937;-82
2022/05/16 04:24:34;;;;;;;;;;;;;;;;;;4934813;29;20431;-83
2022/05/16 04:27:01;;;;;;;;;;;;;;;;;;4932208;29;19974;-84
2022/05/16 04:29:26;;;;;;;;;;;;;;;;;;4917917;29;19919;-84
2022/05/16 04:31:52;;;;;;;;;;;;;;;;;;4918675;29;19942;-83
2022/05/16 04:34:17;;;;;;;;;;;;;;;;;;4918341;29;19923;-85
2022/05/16 04:36:43;;;;;;;;;;;;;;;;;;4918642;29;20388;-84
2022/05/16 04:39:08;;;;;;;;;;;;;;;;;;4918464;29;20291;-85
2022/05/16 04:44:19;;;;;;;;;;;;;;;;;;4898939;29;19919;-85
2022/05/16 04:46:45;;;;;;;;;;;;;;;;;;4918912;29;20276;-85
2022/05/16 04:49:10;;;;;;;;;;;;;;;;;;4918081;29;20360;-83
2022/05/16 04:51:35;;;;;;;;;;;;;;;;;;4918888;29;19923;-86
2022/05/16 04:54:01;;;;;;;;;;;;;;;;;;4919124;29;20010;-85
2022/05/16 04:56:27;;;;;;;;;;;;;;;;;;4918790;29;19924;-83
2022/05/16 04:58:52;;;;;;;;;;;;;;;;;;4918961;29;20022;-85
2022/05/16 05:01:17;;;;;;;;;;;;;;;;;;4918680;29;20010;-84
2022/05/16 05:03:43;;;;;;;;;;;;;;;;;;4901858;29;19923;-84
2022/05/16 05:06:09;;;;;;;;;;;;;;;;;;4918516;29;19923;-87
2022/05/16 05:08:34;;;;;;;;;;;;;;;;;;4918926;29;19923;-83
2022/05/16 05:16:30;;;;;;;;;;;;;;;;;;4917726;29;20474;-86
2022/05/16 05:18:56;;;;;;;;;;;;;;;;;;4918692;29;19930;-86
2022/05/16 05:21:21;;;;;;;;;;;;;;;;;;4924150;29;20017;-84
2022/05/16 05:23:47;;;;;;;;;;;;;;;;;;4923692;29;19934;-84
2022/05/16 05:26:13;;;;;;;;;;;;;;;;;;4918204;29;19919;-83
2022/05/16 05:28:39;;;;;;;;;;;;;;;;;;4918591;29;19971;-82
2022/05/16 05:31:05;;;;;;;;;;;;;;;;;;4926257;29;19962;-87
2022/05/16 05:33:30;;;;;;;;;;;;;;;;;;4937234;29;19919;-84
2022/05/16 05:35:55;;;;;;;;;;;;;;;;;;4936988;29;19922;-83
2022/05/16 05:38:21;;;;;;;;;;;;;;;;;;4936001;29;19990;-84
2022/05/16 05:40:49;;;;;;;;;;;;;;;;;;4942254;29;20288;-82
2022/05/16 05:43:14;;;;;;;;;;;;;;;;;;4956247;29;19966;-86
2022/05/16 05:45:40;;;;;;;;;;;;;;;;;;4955941;29;19923;-83
2022/05/16 05:48:06;;;;;;;;;;;;;;;;;;4956598;29;19918;-82
2022/05/16 05:50:31;;;;;;;;;;;;;;;;;;4932030;29;19932;-83
2022/05/16 05:52:57;;;;;;;;;;;;;;;;;;4927178;29;19985;-82
2022/05/16 05:55:23;;;;;;;;;;;;;;;;;;4918513;29;19923;-83
2022/05/16 05:57:48;;;;;;;;;;;;;;;;;;4919539;29;19928;-83
2022/05/16 06:00:14;;;;;;;;;;;;;;;;;;4937058;29;20010;-83
2022/05/16 06:02:40;;;;;;;;;;;;;;;;;;4939918;29;19918;-83
2022/05/16 06:05:07;;;;;;;;;;;;;;;;;;4938492;29;20000;-82
2022/05/16 06:07:32;;;;;;;;;;;;;;;;;;4954708;29;19975;-82
2022/05/16 06:09:58;;;;;;;;;;;;;;;;;;4955756;29;19965;-81
2022/05/16 06:12:23;;;;;;;;;;;;;;;;;;4955812;29;19927;-82
2022/05/16 06:14:49;;;;;;;;;;;;;;;;;;4938595;29;19923;-82
2022/05/16 06:17:14;;;;;;;;;;;;;;;;;;4955398;28;19934;-83
2022/05/16 06:19:40;;;;;;;;;;;;;;;;;;4955728;29;19925;-82
2022/05/16 06:22:05;;;;;;;;;;;;;;;;;;4955412;29;19918;-82
2022/05/16 06:27:15;;;;;;;;;;;;;;;;;;4935375;29;19929;-82
2022/05/16 06:29:41;;;;;;;;;;;;;;;;;;4936173;29;19919;-83
2022/05/16 06:32:06;;;;;;;;;;;;;;;;;;4936539;29;19966;-82
2022/05/16 06:34:32;;;;;;;;;;;;;;;;;;4936490;29;19919;-82
2022/05/16 06:36:57;;;;;;;;;;;;;;;;;;4935594;29;19923;-83
2022/05/16 06:39:23;;;;;;;;;;;;;;;;;;4934694;29;19919;-83
2022/05/16 06:41:49;;;;;;;;;;;;;;;;;;4934784;29;19972;-83
2022/05/16 06:44:15;;;;;;;;;;;;;;;;;;4935730;29;19923;-83
2022/05/16 06:46:41;;;;;;;;;;;;;;;;;;4934298;29;19922;-89
2022/05/16 06:49:07;;;;;;;;;;;;;;;;;;4935525;29;19930;-83
2022/05/16 06:51:32;;;;;;;;;;;;;;;;;;4934955;29;20384;-82
2022/05/16 06:53:58;;;;;;;;;;;;;;;;;;4934932;29;19927;-82
2022/05/16 06:56:23;;;;;;;;;;;;;;;;;;4934588;29;19929;-83
2022/05/16 06:58:48;;;;;;;;;;;;;;;;;;4935744;29;20013;-88
2022/05/16 07:01:14;;;;;;;;;;;;;;;;;;4935790;29;20310;-84
2022/05/16 07:03:42;;;;;;;;;;;;;;;;;;4935556;29;20363;-84
2022/05/16 07:06:07;;;;;;;;;;;;;;;;;;4935068;29;19975;-84
2022/05/16 07:08:33;;;;;;;;;;;;;;;;;;4935713;29;20006;-84
2022/05/16 07:10:58;;;;;;;;;;;;;;;;;;4935569;29;19919;-84
2022/05/16 07:13:24;;;;;;;;;;;;;;;;;;4935718;29;20285;-84
2022/05/16 07:15:49;;;;;;;;;;;;;;;;;;4935547;29;20397;-83
2022/05/16 07:18:15;;;;;;;;;;;;;;;;;;4935257;29;19926;-84
2022/05/16 07:20:41;;;;;;;;;;;;;;;;;;4935588;29;19919;-83
2022/05/16 07:23:06;;;;;;;;;;;;;;;;;;4934793;29;19950;-82
2022/05/16 07:27:56;;;;;;;;;;;;;;;;;;4935258;29;20376;-82
2022/05/16 07:28:17;;;;;;;;;;;;;;;;;;4935164;29;19982;-83
2022/05/16 07:30:42;;;;;;;;;;;;;;;;;;4935769;29;20351;-83
2022/05/16 07:33:08;;;;;;;;;;;;;;;;;;4935538;29;20426;-83
2022/05/16 07:35:33;;;;;;;;;;;;;;;;;;4935324;29;19919;-83
2022/05/16 07:38:01;;;;;;;;;;;;;;;;;;4925464;29;19931;-84
2022/05/16 07:40:31;;;;;;;;;;;;;;;;;;4930073;29;19982;-84
2022/05/16 07:42:56;;;;;;;;;;;;;;;;;;4928865;29;19919;-82
2022/05/16 07:45:22;;;;;;;;;;;;;;;;;;4919140;29;20308;-82
2022/05/16 07:47:47;;;;;;;;;;;;;;;;;;4916247;29;20026;-82
2022/05/16 07:50:13;;;;;;;;;;;;;;;;;;4919466;29;19922;-83
2022/05/16 07:52:41;;;;;;;;;;;;;;;;;;4920226;29;19925;-81
2022/05/16 07:55:07;;;;;;;;;;;;;;;;;;4918865;29;19919;-85
2022/05/16 07:57:32;;;;;;;;;;;;;;;;;;4919661;29;19919;-82
2022/05/16 07:59:58;;;;;;;;;;;;;;;;;;4920063;29;19983;-81
2022/05/16 08:02:23;;;;;;;;;;;;;;;;;;4919656;29;19972;-81
2022/05/16 08:04:49;;;;;;;;;;;;;;;;;;4929087;29;20005;-82
2022/05/16 08:07:14;;;;;;;;;;;;;;;;;;4957731;29;20393;-83
2022/05/16 08:12:28;;;;;;;;;;;;;;;;;;4958197;29;20358;-82
2022/05/16 08:14:53;;;;;;;;;;;;;;;;;;4958034;29;19922;-82
2022/05/16 08:17:19;;;;;;;;;;;;;;;;;;4957740;28;19925;-82
2022/05/16 08:19:44;;;;;;;;;;;;;;;;;;4957985;29;19923;-82
2022/05/16 08:22:10;;;;;;;;;;;;;;;;;;4957746;29;19918;-82
2022/05/16 08:24:35;;;;;;;;;;;;;;;;;;4957960;29;20343;-82
2022/05/16 08:27:02;;;;;;;;;;;;;;;;;;4957484;29;20052;-81
2022/05/16 08:29:28;;;;;;;;;;;;;;;;;;4940443;29;20069;-81
2022/05/16 08:31:55;;;;;;;;;;;;;;;;;;4957706;29;19922;-82
2022/05/16 08:34:21;;;;;;;;;;;;;;;;;;4957629;29;19919;-81
2022/05/16 08:42:14;;;;;;;;;;;;;;;;;;4957642;29;19964;-82
2022/05/16 08:44:39;;;;;;;;;;;;;;;;;;4957422;29;19918;-81
2022/05/16 08:47:24;;;;;;;;;;;;;;;;;;4957058;29;19922;-82
2022/05/16 08:49:52;;;;;;;;;;;;;;;;;;4957138;29;19914;-79
2022/05/16 08:52:20;;;;;;;;;;;;;;;;;;4957215;29;19958;-81
2022/05/16 08:54:53;;;;;;;;;;;;;;;;;;4957365;29;19922;-79
2022/05/16 08:57:51;;;;;;;;;;;;;;;;;;4939569;29;19965;-79
2022/05/16 09:00:28;;;;;;;;;;;;;;;;;;4924141;29;19981;-79
2022/05/16 09:02:54;;;;;;;;;;;;;;;;;;4957035;29;19918;-79
2022/05/16 09:05:32;;;;;;;;;;;;;;;;;;4956910;29;19922;-78
2022/05/16 09:07:58;;;;;;;;;;;;;;;;;;4956561;29;19961;-79
2022/05/16 09:10:37;;;;;;;;;;;;;;;;;;4940116;29;20316;-79
2022/05/16 09:13:06;;;;;;;;;;;;;;;;;;4957300;29;20294;-81
2022/05/16 09:15:31;;;;;;;;;;;;;;;;;;4956743;29;19918;-79
2022/05/16 09:18:02;;;;;;;;;;;;;;;;;;4956453;28;19989;-78
2022/05/16 09:20:49;;;;;;;;;;;;;;;;;;4956800;29;19958;-79
2022/05/16 09:23:20;;;;;;;;;;;;;;;;;;4945949;29;19918;-79
2022/05/16 09:25:49;;;;;;;;;;;;;;;;;;4957093;29;19973;-80
2022/05/16 09:31:00;;;;;;;;;;;;;;;;;;4942432;29;19925;-79
2022/05/16 09:33:27;;;;;;;;;;;;;;;;;;4956556;29;19918;-79
2022/05/16 09:35:52;;;;;;;;;;;;;;;;;;4956572;29;20005;-79
2022/05/16 09:38:19;;;;;;;;;;;;;;;;;;4956116;28;20017;-78
2022/05/16 09:40:54;;;;;;;;;;;;;;;;;;4956464;29;19970;-79
2022/05/16 09:43:20;;;;;;;;;;;;;;;;;;4956263;29;19966;-78
2022/05/16 09:45:49;;;;;;;;;;;;;;;;;;4956053;29;19923;-79
2022/05/16 09:48:16;;;;;;;;;;;;;;;;;;4955800;29;19966;-79
2022/05/16 09:50:54;;;;;;;;;;;;;;;;;;4956213;29;19969;-80
2022/05/16 09:53:27;;;;;;;;;;;;;;;;;;4939000;29;19926;-80
2022/05/16 09:55:53;;;;;;;;;;;;;;;;;;4956181;29;19967;-80
2022/05/16 09:58:20;;;;;;;;;;;;;;;;;;4955737;28;19929;-79
2022/05/16 10:00:59;;;;;;;;;;;;;;;;;;4956246;29;19926;-80
2022/05/16 10:03:32;;;;;;;;;;;;;;;;;;4954301;29;19926;-80
2022/05/16 10:05:59;;;;;;;;;;;;;;;;;;4936621;29;19923;-79
2022/05/16 10:08:30;;;;;;;;;;;;;;;;;;4936315;29;19946;-79
2022/05/16 10:10:57;;;;;;;;;;;;;;;;;;4934668;29;19970;-79
2022/05/16 10:13:22;;;;;;;;;;;;;;;;;;4936665;29;19919;-79
2022/05/16 10:15:49;;;;;;;;;;;;;;;;;;4937812;29;19938;-80
2022/05/16 10:18:18;;;;;;;;;;;;;;;;;;4936096;29;19923;-79
2022/05/16 10:20:46;;;;;;;;;;;;;;;;;;4936812;29;19926;-81
2022/05/16 10:23:14;;;;;;;;;;;;;;;;;;4922541;29;19914;-79
2022/05/16 10:25:42;;;;;;;;;;;;;;;;;;4955296;29;19927;-80
2022/05/16 10:28:11;;;;;;;;;;;;;;;;;;4955227;29;19914;-79
2022/05/16 10:33:24;;;;;;;;;;;;;;;;;;4906589;29;19984;-80
2022/05/16 10:35:52;;;;;;;;;;;;;;;;;;4955417;29;19915;-80
2022/05/16 10:38:21;;;;;;;;;;;;;;;;;;4954955;28;20026;-82
2022/05/16 10:40:49;;;;;;;;;;;;;;;;;;4938117;29;19919;-80
2022/05/16 10:43:27;;;;;;;;;;;;;;;;;;4955097;29;19948;-80
2022/05/16 10:45:55;;;;;;;;;;;;;;;;;;4955046;29;20029;-80
2022/05/16 10:48:29;;;;;;;;;;;;;;;;;;4955068;29;20267;-80
2022/05/16 10:51:03;;;;;;;;;;;;;;;;;;4954982;29;20399;-80
2022/05/16 10:53:30;;;;;;;;;;;;;;;;;;4937884;29;19923;-86
2022/05/16 10:56:03;;;;;;;;;;;;;;;;;;4954937;29;20013;-81
2022/05/16 10:58:38;;;;;;;;;;;;;;;;;;4954856;28;19934;-81
2022/05/16 11:01:11;;;;;;;;;;;;;;;;;;4955030;29;19954;-79
2022/05/16 11:03:53;;;;;;;;;;;;;;;;;;4954779;29;19918;-79
2022/05/16 11:06:30;;;;;;;;;;;;;;;;;;4955078;29;20390;-81
2022/05/16 11:09:08;;;;;;;;;;;;;;;;;;4954560;29;19922;-80
2022/05/16 11:11:37;;;;;;;;;;;;;;;;;;4954879;29;19918;-80
2022/05/16 11:14:18;;;;;;;;;;;;;;;;;;4954902;29;19923;-80
2022/05/16 11:16:44;;;;;;;;;;;;;;;;;;4954895;29;19977;-80
2022/05/16 11:19:25;;;;;;;;;;;;;;;;;;4954370;28;19922;-81
2022/05/16 11:21:56;;;;;;;;;;;;;;;;;;4954451;28;19965;-81
2022/05/16 11:24:42;;;;;;;;;;;;;;;;;;4937063;29;19921;-81
2022/05/16 11:27:10;;;;;;;;;;;;;;;;;;4954777;29;19929;-81
2022/05/16 11:29:39;;;;;;;;;;;;;;;;;;4954209;29;20264;-80
2022/05/16 11:32:04;;;;;;;;;;;;;;;;;;4954406;29;19923;-81
2022/05/16 11:34:33;;;;;;;;;;;;;;;;;;4954677;29;20371;-81
2022/05/16 11:37:18;;;;;;;;;;;;;;;;;;4954647;29;20378;-81
2022/05/16 11:39:49;;;;;;;;;;;;;;;;;;4953299;28;19919;-80
2022/05/16 11:42:33;;;;;;;;;;;;;;;;;;4954737;29;19926;-82
2022/05/16 11:45:17;;;;;;;;;;;;;;;;;;4946212;29;20294;-83
2022/05/16 11:47:42;;;;;;;;;;;;;;;;;;4943116;29;19923;-81
2022/05/16 11:50:11;;;;;;;;;;;;;;;;;;4929118;29;19949;-84
2022/05/16 11:52:39;;;;;;;;;;;;;;;;;;4930478;29;19934;-81
2022/05/16 12:04:05;;;;;;;;;;;;;;;;;;4922469;29;19957;-82
2022/05/16 12:06:31;;;;;;;;;;;;;;;;;;4925502;29;19919;-81
2022/05/16 12:09:15;;;;;;;;;;;;;;;;;;4922521;29;19926;-81
2022/05/16 12:11:51;;;;;;;;;;;;;;;;;;4921151;29;19927;-84
2022/05/16 12:14:26;;;;;;;;;;;;;;;;;;4932762;29;19922;-81
2022/05/16 12:17:17;;;;;;;;;;;;;;;;;;4935193;29;19919;-81
2022/05/16 12:19:46;;;;;;;;;;;;;;;;;;4929683;29;19923;-81
2022/05/16 12:22:13;;;;;;;;;;;;;;;;;;4917989;29;19919;-83
2022/05/16 12:24:41;;;;;;;;;;;;;;;;;;4935506;29;19982;-80
2022/05/16 12:27:27;;;;;;;;;;;;;;;;;;4935416;29;20015;-83
2022/05/16 12:29:56;;;;;;;;;;;;;;;;;;4934256;29;19929;-82
2022/05/16 12:32:31;;;;;;;;;;;;;;;;;;4935105;29;19919;-84
2022/05/16 12:35:02;;;;;;;;;;;;;;;;;;4936739;29;19930;-86
2022/05/16 12:37:28;;;;;;;;;;;;;;;;;;4920555;29;19965;-85
2022/05/16 12:40:03;;;;;;;;;;;;;;;;;;4937934;29;20362;-85
2022/05/16 12:42:35;;;;;;;;;;;;;;;;;;4928651;29;19923;-82
2022/05/16 12:45:20;;;;;;;;;;;;;;;;;;4931576;29;19966;-81
2022/05/16 12:47:51;;;;;;;;;;;;;;;;;;4911095;29;20349;-83
2022/05/16 12:50:24;;;;;;;;;;;;;;;;;;4928128;29;20017;-85
2022/05/16 12:53:14;;;;;;;;;;;;;;;;;;4920811;29;20376;-83
2022/05/16 12:55:53;;;;;;;;;;;;;;;;;;4921440;29;19938;-81
2022/05/16 12:58:25;;;;;;;;;;;;;;;;;;4921704;29;19926;-82
2022/05/16 13:01:06;;;;;;;;;;;;;;;;;;4911261;29;20089;-84
2022/05/16 13:03:50;;;;;;;;;;;;;;;;;;4921325;29;19933;-84
2022/05/16 13:11:39;;;;;;;;;;;;;;;;;;5181663;23;19927;-81
2022/05/16 13:14:10;;;;;;;;;;;;;;;;;;4976186;28;19930;-80
2022/05/16 13:16:40;;;;;;;;;;;;;;;;;;4976132;28;19922;-80
2022/05/16 13:19:17;;;;;;;;;;;;;;;;;;4975570;28;19922;-79
2022/05/16 13:21:50;;;;;;;;;;;;;;;;;;4974449;28;19922;-80
2022/05/16 13:24:18;;;;;;;;;;;;;;;;;;4976458;28;19960;-79
2022/05/16 13:29:34;;;;;;;;;;;;;;;;;;4975648;28;19973;-80
2022/05/16 13:32:06;;;;;;;;;;;;;;;;;;4975824;28;19918;-80
2022/05/16 13:34:33;;;;;;;;;;;;;;;;;;4958857;28;19970;-79
2022/05/16 13:36:59;;;;;;;;;;;;;;;;;;4975780;28;20421;-80
2022/05/16 13:39:24;;;;;;;;;;;;;;;;;;4975437;28;19918;-79
2022/05/16 13:41:57;;;;;;;;;;;;;;;;;;5239220;23;20369;-74
2022/05/16 13:44:23;;;;;;;;;;;;;;;;;;4993206;28;19929;-76
2022/05/16 13:46:50;;;;;;;;;;;;;;;;;;4994759;28;19918;-76
2022/05/16 13:49:17;;;;;;;;;;;;;;;;;;4994633;28;20262;-76
2022/05/16 13:51:47;;;;;;;;;;;;;;;;;;4994838;28;19929;-80
2022/05/16 13:54:15;;;;;;;;;;;;;;;;;;4995118;28;19929;-78
2022/05/16 13:56:51;;;;;;;;;;;;;;;;;;4995012;28;19987;-81
2022/05/16 13:59:27;;;;;;;;;;;;;;;;;;4994603;28;19963;-75
2022/05/16 14:01:58;;;;;;;;;;;;;;;;;;5014157;28;19921;-78
2022/05/16 14:04:26;;;;;;;;;;;;;;;;;;4996793;28;20277;-80
2022/05/16 14:06:53;;;;;;;;;;;;;;;;;;5014146;28;20504;-76
2022/05/16 14:09:20;;;;;;;;;;;;;;;;;;5013802;28;19914;-81
2022/05/16 14:11:47;;;;;;;;;;;;;;;;;;5014337;28;19918;-82
2022/05/16 14:14:15;;;;;;;;;;;;;;;;;;5014309;28;20000;-81
2022/05/16 14:16:41;;;;;;;;;;;;;;;;;;5014133;28;19928;-76
2022/05/16 14:19:12;;;;;;;;;;;;;;;;;;5014365;28;19918;-77
2022/05/16 14:21:52;;;;;;;;;;;;;;;;;;5014049;28;20292;-78
2022/05/16 14:24:20;;;;;;;;;;;;;;;;;;5000997;28;20011;-77
2022/05/16 14:26:48;;;;;;;;;;;;;;;;;;5000503;28;19925;-80
2022/05/16 14:29:19;;;;;;;;;;;;;;;;;;5005975;28;19929;-80
2022/05/16 14:31:46;;;;;;;;;;;;;;;;;;4995378;28;19918;-76
2022/05/16 14:34:20;;;;;;;;;;;;;;;;;;4999966;28;19925;-80
2022/05/16 14:36:46;;;;;;;;;;;;;;;;;;4994174;28;19925;-76
2022/05/16 14:39:14;;;;;;;;;;;;;;;;;;4994082;28;19929;-75
2022/05/16 14:41:48;;;;;;;;;;;;;;;;;;4993641;28;19928;-78
2022/05/16 14:44:19;;;;;;;;;;;;;;;;;;4976597;28;20362;-78
2022/05/16 14:46:55;;;;;;;;;;;;;;;;;;4993699;28;19920;-78
2022/05/16 14:49:21;;;;;;;;;;;;;;;;;;4994297;28;19918;-76
2022/05/16 14:51:47;;;;;;;;;;;;;;;;;;4999259;28;19926;-79
2022/05/16 14:54:16;;;;;;;;;;;;;;;;;;4982897;28;20015;-76
2022/05/16 14:56:41;;;;;;;;;;;;;;;;;;5010426;28;19925;-79
2022/05/16 14:59:07;;;;;;;;;;;;;;;;;;5009982;28;20580;-75
2022/05/16 15:04:16;;;;;;;;;;;;;;;;;;5012691;28;20013;-78
2022/05/16 15:06:42;;;;;;;;;;;;;;;;;;4992663;28;20379;-75
2022/05/16 15:09:11;;;;;;;;;;;;;;;;;;5013167;28;19918;-76
2022/05/16 15:11:40;;;;;;;;;;;;;;;;;;5010283;28;20012;-78
2022/05/16 15:14:06;;;;;;;;;;;;;;;;;;4987710;28;19936;-78
2022/05/16 15:16:32;;;;;;;;;;;;;;;;;;5011011;28;20340;-76
2022/05/16 15:19:00;;;;;;;;;;;;;;;;;;5012497;28;19918;-76
2022/05/16 15:21:26;;;;;;;;;;;;;;;;;;5007403;28;19928;-77
2022/05/16 15:23:51;;;;;;;;;;;;;;;;;;5009066;28;20008;-79
2022/05/16 15:26:18;;;;;;;;;;;;;;;;;;5012747;28;20028;-76
2022/05/16 15:28:43;;;;;;;;;;;;;;;;;;5012940;28;19917;-76
2022/05/16 15:31:09;;;;;;;;;;;;;;;;;;4994897;28;20003;-75
2022/05/16 15:33:35;;;;;;;;;;;;;;;;;;5011021;28;19968;-78
2022/05/16 15:36:01;;;;;;;;;;;;;;;;;;5012531;28;19948;-81
2022/05/16 15:38:27;;;;;;;;;;;;;;;;;;5009481;28;19929;-75
2022/05/16 15:40:53;;;;;;;;;;;;;;;;;;5007842;28;19925;-75
2022/05/16 15:43:18;;;;;;;;;;;;;;;;;;5008198;28;20397;-79
2022/05/16 15:45:44;;;;;;;;;;;;;;;;;;5009251;28;19937;-79
2022/05/16 15:48:12;;;;;;;;;;;;;;;;;;4984106;28;20369;-75
2022/05/16 15:50:37;;;;;;;;;;;;;;;;;;5004001;28;19945;-79
2022/05/16 15:53:06;;;;;;;;;;;;;;;;;;5002932;28;19921;-78
2022/05/16 15:55:32;;;;;;;;;;;;;;;;;;5003247;28;20419;-77
2022/05/16 15:57:57;;;;;;;;;;;;;;;;;;5004570;28;20020;-76
2022/05/16 16:00:23;;;;;;;;;;;;;;;;;;5008202;28;20262;-79
2022/05/16 16:02:52;;;;;;;;;;;;;;;;;;5004110;28;19936;-77
2022/05/16 16:10:47;;;;;;;;;;;;;;;;;;5006979;28;19933;-74
2022/05/16 16:13:17;;;;;;;;;;;;;;;;;;5010149;28;19921;-75
2022/05/16 16:15:43;;;;;;;;;;;;;;;;;;5008357;28;19929;-78
2022/05/16 16:18:09;;;;;;;;;;;;;;;;;;5008946;28;20067;-75
2022/05/16 16:20:34;;;;;;;;;;;;;;;;;;5007847;28;19929;-77
2022/05/16 16:23:00;;;;;;;;;;;;;;;;;;4985225;28;20301;-78
2022/05/16 16:25:26;;;;;;;;;;;;;;;;;;5010546;28;19921;-74
2022/05/16 16:27:54;;;;;;;;;;;;;;;;;;5014971;28;19925;-77
2022/05/16 16:30:21;;;;;;;;;;;;;;;;;;5012814;28;19945;-80
2022/05/16 16:32:48;;;;;;;;;;;;;;;;;;5007720;28;20392;-74
2022/05/16 16:35:14;;;;;;;;;;;;;;;;;;5007010;28;21721;-78
2022/05/16 16:37:40;;;;;;;;;;;;;;;;;;5005298;28;20274;-76
2022/05/16 16:40:06;;;;;;;;;;;;;;;;;;5015817;28;19917;-76
2022/05/16 16:42:32;;;;;;;;;;;;;;;;;;5015489;28;19929;-78
2022/05/16 16:44:59;;;;;;;;;;;;;;;;;;5015847;28;20270;-77
2022/05/16 16:47:25;;;;;;;;;;;;;;;;;;5015557;28;19921;-77
2022/05/16 16:49:51;;;;;;;;;;;;;;;;;;5015710;28;19921;-76
2022/05/16 16:57:44;;;;;;;;;;;;;;;;;;5015728;28;19923;-81
2022/05/16 17:00:18;;;;;;;;;;;;;;;;;;5015570;28;20020;-78
2022/05/16 17:02:48;;;;;;;;;;;;;;;;;;5015236;28;19917;-76
2022/05/16 17:05:15;;;;;;;;;;;;;;;;;;5015429;28;19918;-77
2022/05/16 17:07:41;;;;;;;;;;;;;;;;;;5015200;28;19924;-81
2022/05/16 17:10:08;;;;;;;;;;;;;;;;;;5015587;28;19929;-81
2022/05/16 17:12:34;;;;;;;;;;;;;;;;;;4990025;28;20006;-78
2022/05/16 17:15:04;;;;;;;;;;;;;;;;;;4988361;28;19942;-80
2022/05/16 17:17:30;;;;;;;;;;;;;;;;;;4973521;28;19925;-74
2022/05/16 17:20:01;;;;;;;;;;;;;;;;;;4969867;28;19924;-75
2022/05/16 17:22:30;;;;;;;;;;;;;;;;;;4989973;28;19922;-79
2022/05/16 17:24:56;;;;;;;;;;;;;;;;;;4988510;28;19918;-80
2022/05/16 17:27:25;;;;;;;;;;;;;;;;;;4971415;28;19928;-80
2022/05/16 17:29:50;;;;;;;;;;;;;;;;;;4984059;28;20407;-81
2022/05/16 17:32:16;;;;;;;;;;;;;;;;;;4988839;28;19922;-77
2022/05/16 17:34:42;;;;;;;;;;;;;;;;;;4972527;28;20016;-75
2022/05/16 17:37:14;;;;;;;;;;;;;;;;;;4992381;28;19918;-75
2022/05/16 17:39:40;;;;;;;;;;;;;;;;;;4990054;28;19917;-79
2022/05/16 17:42:06;;;;;;;;;;;;;;;;;;4987763;28;20404;-77
2022/05/16 17:44:32;;;;;;;;;;;;;;;;;;4973345;28;20321;-78
2022/05/16 17:46:58;;;;;;;;;;;;;;;;;;4988015;28;20045;-76
2022/05/16 17:49:23;;;;;;;;;;;;;;;;;;4987983;28;20016;-77
2022/05/16 17:51:49;;;;;;;;;;;;;;;;;;4988104;28;19972;-77